createdAt,value
2019-02-02T00:02:24.215Z,392.63
2019-02-02T00:04:51.939Z,369.00
2019-02-02T00:07:19.713Z,401.87
2019-02-02T00:09:50.344Z,370.30
2019-02-02T00:12:17.931Z,409.50
2019-02-02T00:14:46.617Z,373.10
2019-02-02T00:17:14.271Z,411.47
2019-02-02T00:22:44.392Z,377.37
2019-02-02T00:25:12.134Z,391.23
2019-02-02T00:27:41.493Z,400.77
2019-02-02T00:30:10.980Z,361.57
2019-02-02T00:32:40.145Z,387.10
2019-02-02T00:35:08.548Z,382.33
2019-02-02T00:37:36.496Z,400.27
2019-02-02T00:40:06.047Z,376.07
2019-02-02T00:42:33.832Z,397.40
2019-02-02T00:45:01.595Z,365.63
2019-02-02T00:47:30.716Z,408.43
2019-02-02T00:49:58.288Z,364.53
2019-02-02T00:52:26.057Z,409.47
2019-02-02T00:54:53.876Z,367.17
2019-02-02T00:57:21.543Z,401.57
2019-02-02T00:59:49.245Z,363.80
2019-02-02T01:02:17.282Z,411.43
2019-02-02T01:04:45.001Z,354.17
2019-02-02T01:07:12.564Z,391.77
2019-02-02T01:09:41.175Z,353.37
2019-02-02T01:12:08.659Z,391.87
2019-02-02T01:14:36.575Z,358.07
2019-02-02T01:17:04.655Z,381.53
2019-02-02T01:19:32.375Z,362.57
2019-02-02T01:24:46.697Z,356.47
2019-02-02T01:27:14.281Z,406.17
2019-02-02T01:29:42.938Z,372.80
2019-02-02T01:32:13.806Z,409.20
2019-02-02T01:34:40.370Z,368.67
2019-02-02T01:37:08.003Z,393.87
2019-02-02T01:39:35.666Z,390.27
2019-02-02T01:42:03.540Z,383.77
2019-02-02T01:44:31.203Z,358.87
2019-02-02T01:46:59.014Z,375.17
2019-02-02T01:49:26.617Z,365.13
2019-02-02T01:51:54.344Z,353.83
2019-02-02T01:54:22.516Z,372.10
2019-02-02T01:56:50.614Z,352.30
2019-02-02T01:59:18.315Z,357.97
2019-02-02T02:01:45.903Z,358.73
2019-02-02T02:04:13.583Z,378.10
2019-02-02T02:06:46.997Z,354.93
2019-02-02T02:09:14.858Z,367.70
2019-02-02T02:11:42.598Z,347.83
2019-02-02T02:14:10.056Z,382.50
2019-02-02T02:16:37.823Z,360.77
2019-02-02T02:19:05.736Z,375.83
2019-02-02T02:21:33.666Z,354.33
2019-02-02T02:24:01.431Z,343.87
2019-02-02T02:26:31.284Z,399.97
2019-02-02T02:29:00.122Z,349.27
2019-02-02T02:31:28.460Z,376.07
2019-02-02T02:33:56.058Z,379.43
2019-02-02T02:36:23.547Z,375.00
2019-02-02T02:38:53.462Z,379.63
2019-02-02T02:41:21.249Z,396.63
2019-02-02T02:43:48.715Z,367.37
2019-02-02T02:46:16.235Z,358.57
2019-02-02T02:48:43.693Z,353.53
2019-02-02T02:51:11.485Z,358.33
2019-02-02T02:53:39.127Z,387.43
2019-02-02T02:56:06.848Z,348.70
2019-02-02T02:58:41.415Z,364.00
2019-02-02T03:01:04.593Z,372.63
2019-02-02T03:03:32.665Z,354.70
2019-02-02T03:06:00.502Z,369.60
2019-02-02T03:08:28.090Z,370.17
2019-02-02T03:10:55.632Z,374.93
2019-02-02T03:13:23.246Z,372.70
2019-02-02T03:15:52.029Z,354.50
2019-02-02T03:18:22.120Z,368.50
2019-02-02T03:20:49.650Z,376.57
2019-02-02T03:23:17.645Z,351.43
2019-02-02T03:25:45.204Z,358.27
2019-02-02T03:28:12.615Z,366.10
2019-02-02T03:30:40.050Z,356.30
2019-02-02T03:33:09.073Z,376.90
2019-02-02T03:35:36.800Z,361.43
2019-02-02T03:38:04.796Z,386.10
2019-02-02T03:40:32.950Z,369.80
2019-02-02T03:43:00.644Z,356.63
2019-02-02T03:45:28.131Z,375.03
2019-02-02T03:47:55.969Z,418.40
2019-02-02T03:50:23.599Z,343.13
2019-02-02T03:52:51.443Z,381.87
2019-02-02T03:55:19.175Z,372.30
2019-02-02T03:57:47.045Z,404.33
2019-02-02T04:00:17.797Z,362.80
2019-02-02T04:02:45.988Z,373.37
2019-02-02T04:05:19.530Z,362.37
2019-02-02T04:07:47.938Z,385.13
2019-02-02T04:10:15.831Z,354.17
2019-02-02T04:12:43.845Z,374.83
2019-02-02T04:15:13.043Z,355.93
2019-02-02T04:17:40.833Z,393.67
2019-02-02T04:20:13.113Z,368.13
2019-02-02T04:22:40.866Z,395.50
2019-02-02T04:25:08.939Z,362.40
2019-02-02T04:27:37.321Z,386.87
2019-02-02T04:30:08.636Z,371.63
2019-02-02T04:35:17.233Z,347.70
2019-02-02T04:37:45.220Z,398.40
2019-02-02T04:40:13.687Z,350.13
2019-02-02T04:42:41.655Z,385.00
2019-02-02T04:45:10.471Z,361.57
2019-02-02T04:47:38.481Z,378.83
2019-02-02T04:50:09.377Z,367.20
2019-02-02T04:52:37.131Z,388.53
2019-02-02T04:55:05.201Z,352.90
2019-02-02T04:57:32.877Z,388.73
2019-02-02T05:00:00.519Z,331.73
2019-02-02T05:02:30.307Z,360.00
2019-02-02T05:04:58.171Z,360.80
2019-02-02T05:07:25.750Z,400.07
2019-02-02T05:09:53.518Z,340.90
2019-02-02T05:12:21.527Z,381.50
2019-02-02T05:14:49.161Z,347.63
2019-02-02T05:17:16.837Z,359.93
2019-02-02T05:19:44.423Z,350.40
2019-02-02T05:22:12.339Z,335.43
2019-02-02T05:24:40.171Z,345.73
2019-02-02T05:27:08.116Z,383.13
2019-02-02T05:29:41.588Z,341.10
2019-02-02T05:32:05.672Z,318.97
2019-02-02T05:34:33.586Z,356.60
2019-02-02T05:37:01.287Z,362.43
2019-02-02T05:39:28.819Z,332.03
2019-02-02T05:41:56.828Z,336.20
2019-02-02T05:44:24.574Z,360.83
2019-02-02T05:46:52.259Z,367.27
2019-02-02T05:49:20.209Z,364.40
2019-02-02T05:51:47.975Z,343.83
2019-02-02T05:54:15.773Z,336.50
2019-02-02T05:56:43.285Z,382.87
2019-02-02T05:59:10.811Z,350.63
2019-02-02T06:01:40.283Z,360.57
2019-02-02T06:04:08.396Z,367.53
2019-02-02T06:06:36.265Z,364.70
2019-02-02T06:09:07.741Z,364.53
2019-02-02T06:11:36.152Z,349.07
2019-02-02T06:14:04.358Z,352.57
2019-02-02T06:16:33.988Z,366.27
2019-02-02T06:19:01.981Z,361.80
2019-02-02T06:21:29.364Z,364.53
2019-02-02T06:23:58.132Z,339.33
2019-02-02T06:26:25.835Z,359.67
2019-02-02T06:28:54.498Z,380.13
2019-02-02T06:31:23.486Z,351.70
2019-02-02T06:33:51.052Z,326.77
2019-02-02T06:36:18.748Z,362.07
2019-02-02T06:38:46.344Z,354.40
2019-02-02T06:41:13.801Z,345.10
2019-02-02T06:43:41.461Z,331.87
2019-02-02T06:46:09.054Z,330.40
2019-02-02T06:48:37.683Z,346.53
2019-02-02T06:51:05.594Z,352.17
2019-02-02T06:53:33.341Z,356.83
2019-02-02T06:56:00.829Z,325.30
2019-02-02T06:58:28.381Z,345.30
2019-02-02T07:00:55.912Z,343.63
2019-02-02T07:03:23.635Z,351.50
2019-02-02T07:05:51.442Z,374.43
2019-02-02T07:08:18.994Z,338.73
2019-02-02T07:10:46.623Z,339.27
2019-02-02T07:13:14.107Z,370.43
2019-02-02T07:15:42.108Z,328.40
2019-02-02T07:18:10.114Z,374.43
2019-02-02T07:20:37.876Z,334.67
2019-02-02T07:23:05.433Z,370.30
2019-02-02T07:25:33.239Z,355.13
2019-02-02T07:28:01.149Z,374.83
2019-02-02T07:30:29.850Z,342.20
2019-02-02T07:32:57.871Z,405.70
2019-02-02T07:35:25.778Z,362.83
2019-02-02T07:37:53.429Z,392.70
2019-02-02T07:40:21.699Z,344.03
2019-02-02T07:42:49.513Z,363.20
2019-02-02T07:45:23.399Z,379.10
2019-02-02T07:47:50.954Z,396.80
2019-02-02T07:50:18.782Z,347.70
2019-02-02T07:52:46.558Z,422.93
2019-02-02T07:55:16.480Z,351.07
2019-02-02T07:57:44.433Z,414.03
2019-02-02T08:00:39.772Z,340.60
2019-02-02T08:03:00.008Z,395.00
2019-02-02T08:05:29.237Z,338.67
2019-02-02T08:07:58.909Z,399.70
2019-02-02T08:10:26.803Z,358.27
2019-02-02T08:13:01.236Z,329.50
2019-02-02T08:15:36.969Z,367.60
2019-02-02T08:18:05.974Z,358.27
2019-02-02T08:20:36.949Z,352.03
2019-02-02T08:23:19.735Z,341.53
2019-02-02T08:25:47.934Z,328.47
2019-02-02T08:28:21.756Z,325.70
2019-02-02T08:31:12.040Z,288.27
2019-02-02T08:33:45.410Z,350.17
2019-02-02T08:36:13.210Z,366.03
2019-02-02T08:38:40.788Z,358.67
2019-02-02T08:41:08.451Z,362.53
2019-02-02T08:43:36.276Z,346.23
2019-02-02T08:46:04.035Z,366.37
2019-02-02T08:48:31.618Z,353.07
2019-02-02T08:50:59.445Z,373.93
2019-02-02T08:53:27.273Z,372.90
2019-02-02T08:55:55.843Z,359.43
2019-02-02T08:58:27.434Z,345.70
2019-02-02T09:01:03.773Z,388.93
2019-02-02T09:03:27.498Z,372.07
2019-02-02T09:05:55.333Z,357.43
2019-02-02T09:08:23.201Z,373.30
2019-02-02T09:10:51.096Z,398.87
2019-02-02T09:13:18.866Z,363.73
2019-02-02T09:15:48.154Z,360.03
2019-02-02T09:18:15.719Z,364.87
2019-02-02T09:20:43.708Z,352.93
2019-02-02T09:23:11.510Z,362.73
2019-02-02T09:25:39.191Z,357.63
2019-02-02T09:28:06.916Z,379.47
2019-02-02T09:30:36.795Z,365.10
2019-02-02T09:33:05.585Z,380.53
2019-02-02T09:35:33.064Z,360.73
2019-02-02T09:38:00.710Z,380.13
2019-02-02T09:40:28.308Z,347.33
2019-02-02T09:42:56.010Z,388.83
2019-02-02T09:45:24.840Z,359.93
2019-02-02T09:47:52.800Z,373.37
2019-02-02T09:50:28.287Z,350.27
2019-02-02T09:52:57.254Z,388.87
2019-02-02T09:55:25.328Z,306.73
2019-02-02T09:58:00.089Z,369.07
2019-02-02T10:00:31.279Z,356.73
2019-02-02T10:02:59.963Z,386.60
2019-02-02T10:05:28.732Z,377.77
2019-02-02T10:07:57.536Z,372.37
2019-02-02T10:10:27.673Z,335.50
2019-02-02T10:12:55.651Z,376.03
2019-02-02T10:15:23.394Z,331.20
2019-02-02T10:17:52.010Z,383.57
2019-02-02T10:20:21.946Z,360.20
2019-02-02T10:22:49.515Z,400.80
2019-02-02T10:25:25.493Z,334.37
2019-02-02T10:27:59.155Z,387.17
2019-02-02T10:30:42.204Z,310.80
2019-02-02T10:33:13.515Z,343.87
2019-02-02T10:35:42.450Z,336.53
2019-02-02T10:38:10.298Z,323.70
2019-02-02T10:40:38.072Z,351.30
2019-02-02T10:43:05.928Z,367.47
2019-02-02T10:45:33.631Z,336.60
2019-02-02T10:48:02.465Z,359.97
2019-02-02T10:50:33.797Z,297.00
2019-02-02T10:53:01.346Z,325.73
2019-02-02T10:55:29.135Z,298.10
2019-02-02T10:57:56.714Z,350.97
2019-02-02T11:00:27.651Z,320.30
2019-02-02T11:02:55.547Z,354.73
2019-02-02T11:05:23.308Z,328.53
2019-02-02T11:07:54.599Z,374.50
2019-02-02T11:10:25.163Z,316.23
2019-02-02T11:12:53.926Z,372.93
2019-02-02T11:15:22.010Z,351.50
2019-02-02T11:17:49.942Z,367.40
2019-02-02T11:20:21.418Z,355.17
2019-02-02T11:22:50.693Z,404.13
2019-02-02T11:25:19.629Z,323.60
2019-02-02T11:27:47.660Z,374.40
2019-02-02T11:30:16.339Z,356.10
2019-02-02T11:32:44.667Z,388.80
2019-02-02T11:35:13.662Z,332.90
2019-02-02T11:37:42.261Z,356.97
2019-02-02T11:40:14.612Z,336.63
2019-02-02T11:42:43.656Z,358.27
2019-02-02T11:45:13.018Z,328.00
2019-02-02T11:47:40.703Z,368.70
2019-02-02T11:50:11.719Z,345.80
2019-02-02T11:52:39.370Z,377.17
2019-02-02T11:55:09.543Z,324.67
2019-02-02T11:57:37.870Z,396.80
2019-02-02T12:00:19.287Z,352.90
2019-02-02T12:02:51.803Z,412.70
2019-02-02T12:05:19.970Z,403.53
2019-02-02T12:07:47.940Z,416.17
2019-02-02T12:10:17.782Z,395.43
2019-02-02T12:12:48.777Z,413.80
2019-02-02T12:15:17.371Z,392.50
2019-02-02T12:17:45.684Z,402.87
2019-02-02T12:20:15.285Z,386.57
2019-02-02T12:22:43.002Z,410.73
2019-02-02T12:25:11.095Z,395.27
2019-02-02T12:27:38.909Z,400.30
2019-02-02T12:30:14.513Z,382.73
2019-02-02T12:32:43.357Z,409.23
2019-02-02T12:35:15.601Z,383.50
2019-02-02T12:37:43.198Z,412.30
2019-02-02T12:40:11.655Z,383.33
2019-02-02T12:42:39.861Z,424.10
2019-02-02T12:45:18.884Z,380.23
2019-02-02T12:47:46.635Z,412.10
2019-02-02T12:50:16.323Z,375.30
2019-02-02T12:52:44.076Z,404.70
2019-02-02T12:55:12.236Z,377.23
2019-02-02T12:57:41.570Z,415.33
2019-02-02T13:00:14.304Z,348.57
2019-02-02T13:02:51.679Z,388.53
2019-02-02T13:05:23.549Z,360.07
2019-02-02T13:07:52.427Z,402.47
2019-02-02T13:10:24.680Z,349.60
2019-02-02T13:12:53.104Z,396.93
2019-02-02T13:15:20.879Z,374.70
2019-02-02T13:17:48.662Z,399.27
2019-02-02T13:20:16.613Z,398.43
2019-02-02T13:22:44.420Z,404.70
2019-02-02T13:25:15.047Z,369.67
2019-02-02T13:27:43.914Z,425.20
2019-02-02T13:30:16.413Z,389.87
2019-02-02T13:32:49.733Z,417.63
2019-02-02T13:35:15.087Z,375.57
2019-02-02T13:37:42.871Z,427.93
2019-02-02T13:40:14.482Z,376.17
2019-02-02T13:42:42.435Z,415.13
2019-02-02T13:45:11.440Z,382.77
2019-02-02T13:47:46.441Z,398.60
2019-02-02T13:50:20.869Z,356.57
2019-02-02T13:52:53.086Z,420.20
2019-02-02T13:55:26.649Z,395.00
2019-02-02T13:57:54.849Z,405.50
2019-02-02T14:00:27.279Z,374.43
2019-02-02T14:03:03.003Z,404.93
2019-02-02T14:05:31.659Z,358.93
2019-02-02T14:08:07.214Z,364.57
2019-02-02T14:10:35.275Z,378.00
2019-02-02T14:13:04.612Z,370.57
2019-02-02T14:15:33.347Z,363.77
2019-02-02T14:18:01.222Z,397.37
2019-02-02T14:20:33.083Z,366.63
2019-02-02T14:23:03.471Z,365.87
2019-02-02T14:25:35.255Z,378.20
2019-02-02T14:28:08.270Z,383.90
2019-02-02T14:30:36.630Z,374.27
2019-02-02T14:33:13.814Z,442.50
2019-02-02T14:35:34.454Z,425.00
2019-02-02T14:38:02.337Z,432.33
2019-02-02T14:40:30.330Z,430.17
2019-02-02T14:42:58.394Z,452.97
2019-02-02T14:45:27.538Z,437.03
2019-02-02T14:47:56.410Z,441.57
2019-02-02T14:50:24.857Z,435.67
2019-02-02T14:52:53.016Z,448.47
2019-02-02T14:55:26.814Z,430.73
2019-02-02T14:57:55.147Z,447.13
2019-02-02T15:00:26.077Z,441.03
2019-02-02T15:02:55.668Z,458.20
2019-02-02T15:05:23.423Z,447.37
2019-02-02T15:07:51.190Z,468.80
2019-02-02T15:10:21.146Z,432.63
2019-02-02T15:12:49.533Z,451.17
2019-02-02T15:15:17.230Z,423.23
2019-02-02T15:17:44.876Z,455.47
2019-02-02T15:20:22.083Z,433.17
2019-02-02T15:22:49.464Z,477.23
2019-02-02T15:25:17.291Z,442.10
2019-02-02T15:27:44.958Z,450.77
2019-02-02T15:30:17.029Z,450.73
2019-02-02T15:32:44.894Z,458.40
2019-02-02T15:35:14.339Z,436.13
2019-02-02T15:37:42.266Z,458.37
2019-02-02T15:40:13.984Z,441.93
2019-02-02T15:42:42.157Z,459.37
2019-02-02T15:45:12.097Z,434.27
2019-02-02T15:47:40.147Z,446.53
2019-02-02T15:50:12.410Z,396.93
2019-02-02T15:52:42.056Z,443.23
2019-02-02T15:55:13.750Z,406.13
2019-02-02T15:57:41.508Z,437.00
2019-02-02T16:00:23.861Z,417.50
2019-02-02T16:02:54.604Z,420.50
2019-02-02T16:05:22.992Z,403.50
2019-02-02T16:07:52.259Z,435.03
2019-02-02T16:10:26.151Z,414.97
2019-02-02T16:12:55.525Z,424.17
2019-02-02T16:15:25.846Z,412.77
2019-02-02T16:18:01.048Z,416.50
2019-02-02T16:20:33.768Z,419.20
2019-02-02T16:23:01.429Z,423.37
2019-02-02T16:25:30.562Z,407.80
2019-02-02T16:27:58.467Z,422.87
2019-02-02T16:30:26.975Z,413.13
2019-02-02T16:32:55.593Z,442.37
2019-02-02T16:35:23.462Z,426.70
2019-02-02T16:37:51.392Z,467.27
2019-02-02T16:40:21.683Z,432.30
2019-02-02T16:42:49.560Z,451.40
2019-02-02T16:45:23.204Z,411.83
2019-02-02T16:47:51.939Z,429.83
2019-02-02T16:50:21.518Z,411.27
2019-02-02T16:52:51.846Z,426.60
2019-02-02T16:55:19.530Z,421.13
2019-02-02T16:57:47.141Z,441.70
2019-02-02T17:00:18.520Z,408.23
2019-02-02T17:02:46.163Z,439.50
2019-02-02T17:05:13.748Z,416.70
2019-02-02T17:07:46.273Z,439.23
2019-02-02T17:10:18.017Z,399.47
2019-02-02T17:12:48.557Z,422.90
2019-02-02T17:15:17.710Z,390.77
2019-02-02T17:17:46.362Z,450.73
2019-02-02T17:20:23.836Z,406.70
2019-02-02T17:22:52.031Z,427.03
2019-02-02T17:25:22.371Z,390.37
2019-02-02T17:27:50.831Z,406.83
2019-02-02T17:30:20.623Z,412.07
2019-02-02T17:32:49.194Z,437.60
2019-02-02T17:35:16.871Z,403.60
2019-02-02T17:37:44.698Z,453.03
2019-02-02T17:40:15.882Z,420.17
2019-02-02T17:42:48.331Z,448.00
2019-02-02T17:45:18.675Z,370.57
2019-02-02T17:47:46.524Z,402.40
2019-02-02T17:50:16.799Z,384.37
2019-02-02T17:52:46.834Z,430.73
2019-02-02T17:55:15.160Z,413.50
2019-02-02T17:57:42.680Z,415.83
2019-02-02T18:00:27.588Z,421.13
2019-02-02T18:02:55.562Z,453.60
2019-02-02T18:05:26.744Z,390.73
2019-02-02T18:07:55.503Z,422.73
2019-02-02T18:10:23.164Z,375.10
2019-02-02T18:12:51.762Z,438.33
2019-02-02T18:15:21.910Z,402.47
2019-02-02T18:17:53.422Z,425.27
2019-02-02T18:20:21.484Z,406.20
2019-02-02T18:22:49.402Z,441.80
2019-02-02T18:25:16.959Z,413.13
2019-02-02T18:27:47.413Z,417.17
2019-02-02T18:30:17.915Z,425.87
2019-02-02T18:32:45.872Z,467.70
2019-02-02T18:35:14.286Z,420.70
2019-02-02T18:37:42.259Z,432.33
2019-02-02T18:40:13.370Z,426.47
2019-02-02T18:42:41.471Z,452.30
2019-02-02T18:45:12.854Z,436.80
2019-02-02T18:47:41.002Z,454.07
2019-02-02T18:50:11.896Z,418.53
2019-02-02T18:52:39.662Z,449.37
2019-02-02T18:55:11.482Z,436.03
2019-02-02T18:57:41.835Z,470.80
2019-02-02T19:00:15.029Z,423.57
2019-02-02T19:02:42.934Z,450.40
2019-02-02T19:05:10.656Z,430.70
2019-02-02T19:07:38.521Z,447.73
2019-02-02T19:10:11.107Z,436.43
2019-02-02T19:12:43.785Z,464.33
2019-02-02T19:15:11.759Z,420.40
2019-02-02T19:17:40.093Z,460.93
2019-02-02T19:23:24.277Z,446.63
2019-02-02T19:25:41.900Z,445.37
2019-02-02T19:28:09.914Z,435.33
2019-02-02T19:30:41.275Z,436.80
2019-02-02T19:33:09.977Z,442.93
2019-02-02T19:35:37.975Z,432.93
2019-02-02T19:38:06.294Z,432.47
2019-02-02T19:40:34.050Z,456.03
2019-02-02T19:43:03.755Z,470.57
2019-02-02T19:45:31.280Z,430.33
2019-02-02T19:47:59.723Z,456.70
2019-02-02T19:50:27.521Z,444.87
2019-02-02T19:52:56.105Z,460.47
2019-02-02T19:55:25.377Z,432.20
2019-02-02T19:57:53.074Z,465.43
2019-02-02T20:00:26.979Z,441.33
2019-02-02T20:02:54.920Z,447.60
2019-02-02T20:05:28.670Z,422.97
2019-02-02T20:07:53.102Z,423.77
2019-02-02T20:10:22.610Z,396.93
2019-02-02T20:12:50.683Z,444.53
2019-02-02T20:15:22.166Z,418.30
2019-02-02T20:17:51.812Z,390.73
2019-02-02T20:20:22.333Z,414.47
2019-02-02T20:22:52.719Z,389.53
2019-02-02T20:25:21.756Z,417.47
2019-02-02T20:27:49.657Z,448.33
2019-02-02T20:30:29.233Z,393.60
2019-02-02T20:32:57.565Z,420.00
2019-02-02T20:35:25.359Z,422.00
2019-02-02T20:37:55.197Z,422.80
2019-02-02T20:40:24.028Z,422.73
2019-02-02T20:42:51.781Z,448.03
2019-02-02T20:45:22.724Z,437.13
2019-02-02T20:47:55.533Z,440.40
2019-02-02T20:50:24.373Z,429.17
2019-02-02T20:52:55.201Z,454.40
2019-02-02T20:55:30.897Z,432.83
2019-02-02T20:58:04.627Z,448.83
2019-02-02T21:00:37.321Z,415.50
2019-02-02T21:03:06.032Z,408.23
2019-02-02T21:05:34.663Z,391.10
2019-02-02T21:08:07.834Z,409.40
2019-02-02T21:10:38.659Z,399.83
2019-02-02T21:13:06.785Z,419.43
2019-02-02T21:15:35.932Z,413.53
2019-02-02T21:18:04.835Z,421.53
2019-02-02T21:20:33.173Z,386.73
2019-02-02T21:23:00.969Z,418.20
2019-02-02T21:25:28.765Z,410.93
2019-02-02T21:27:56.843Z,445.23
2019-02-02T21:30:32.301Z,384.37
2019-02-02T21:33:01.503Z,448.27
2019-02-02T21:35:30.374Z,398.77
2019-02-02T21:37:58.646Z,440.20
2019-02-02T21:40:29.378Z,429.87
2019-02-02T21:42:57.428Z,441.47
2019-02-02T21:45:25.090Z,426.00
2019-02-02T21:47:53.159Z,415.43
2019-02-02T21:50:22.352Z,408.83
2019-02-02T21:52:50.241Z,451.53
2019-02-02T21:55:20.982Z,415.27
2019-02-02T21:57:48.887Z,442.87
2019-02-02T22:00:21.088Z,417.27
2019-02-02T22:02:48.900Z,437.37
2019-02-02T22:05:16.795Z,416.20
2019-02-02T22:07:47.324Z,456.87
2019-02-02T22:10:16.252Z,420.20
2019-02-02T22:12:44.560Z,433.97
2019-02-02T22:15:17.661Z,390.73
2019-02-02T22:17:45.849Z,441.23
2019-02-02T22:20:13.846Z,420.53
2019-02-02T22:22:41.503Z,423.63
2019-02-02T22:25:15.844Z,428.93
2019-02-02T22:27:44.094Z,442.43
2019-02-02T22:30:16.157Z,414.77
2019-02-02T22:32:43.964Z,446.70
2019-02-02T22:35:11.812Z,411.27
2019-02-02T22:37:39.648Z,439.83
2019-02-02T22:40:10.483Z,410.47
2019-02-02T22:42:39.004Z,433.70
2019-02-02T22:45:11.630Z,396.90
2019-02-02T22:47:39.388Z,426.63
2019-02-02T22:50:09.134Z,424.70
2019-02-02T22:52:38.042Z,433.53
2019-02-02T22:55:08.576Z,401.20
2019-02-02T22:57:36.292Z,423.87
2019-02-02T23:00:24.312Z,391.77
2019-02-02T23:02:53.062Z,438.87
2019-02-02T23:05:37.724Z,396.57
2019-02-02T23:09:21.419Z,423.03
2019-02-02T23:12:26.218Z,404.87
2019-02-02T23:15:43.393Z,418.20
2019-02-02T23:18:11.158Z,413.27
2019-02-02T23:20:38.780Z,416.70
2019-02-02T23:23:06.728Z,418.17
2019-02-02T23:25:34.773Z,412.70
2019-02-02T23:28:02.414Z,443.27
2019-02-02T23:30:30.069Z,399.07
2019-02-02T23:32:57.869Z,399.30
2019-02-02T23:35:25.778Z,374.53
2019-02-02T23:37:53.599Z,436.33
2019-02-02T23:40:21.156Z,366.07
2019-02-02T23:42:49.059Z,421.17
2019-02-02T23:45:16.761Z,381.10
2019-02-02T23:47:44.519Z,411.43
2019-02-02T23:50:12.246Z,383.23
2019-02-02T23:52:39.813Z,430.37
2019-02-02T23:55:07.636Z,379.73
2019-02-02T23:57:35.518Z,431.90
